Time;durP1;ratioP1;P1;durP2;ratioP2;P2;SDS_P1;SDS_P2;PMS_P1;PMS_P2;Temp;Humidity;BMP_temperature;BMP_pressure;BME280_temperature;BME280_humidity;BME280_pressure;Samples;Min_cycle;Max_cycle;Signal;HPM_P1;HPM_P2
2021/08/08 00:01:51;;;;;;;4.43;2.20;;;;;;;22.14;58.62;99644.28;5115852;28;20040;-73
2021/08/08 00:04:22;;;;;;;6.20;2.15;;;;;;;22.09;58.10;99646.69;5115522;28;20630;-73
2021/08/08 00:06:52;;;;;;;4.82;2.10;;;;;;;22.11;58.00;99636.50;5115411;28;20055;-73
2021/08/08 00:09:20;;;;;;;3.55;2.17;;;;;;;22.27;57.14;99641.78;5115552;28;20047;-74
2021/08/08 00:11:50;;;;;;;3.75;2.00;;;;;;;22.36;55.86;99644.44;5115668;28;20416;-72
2021/08/08 00:14:18;;;;;;;6.15;2.08;;;;;;;22.36;56.54;99633.56;5115354;28;20511;-71
2021/08/08 00:16:46;;;;;;;7.22;2.33;;;;;;;22.32;56.13;99643.97;5115787;28;20066;-71
2021/08/08 00:19:15;;;;;;;4.82;1.83;;;;;;;22.34;56.46;99644.63;5115519;28;20040;-71
2021/08/08 00:21:43;;;;;;;2.80;1.80;;;;;;;22.30;56.46;99643.31;5115650;28;20046;-71
2021/08/08 00:24:12;;;;;;;6.03;2.53;;;;;;;22.32;56.10;99640.41;5115175;27;20044;-71
2021/08/08 00:26:41;;;;;;;4.30;2.08;;;;;;;22.32;56.09;99640.41;5115386;28;20067;-71
2021/08/08 00:29:09;;;;;;;4.40;1.83;;;;;;;22.21;57.05;99645.25;5115255;28;20373;-72
2021/08/08 00:31:38;;;;;;;3.10;1.80;;;;;;;22.26;56.39;99633.84;5115483;28;20047;-71
2021/08/08 00:34:06;;;;;;;4.47;2.22;;;;;;;22.28;56.40;99638.03;5115236;28;20093;-72
2021/08/08 00:36:35;;;;;;;3.42;1.98;;;;;;;22.22;56.42;99638.78;5114235;28;20082;-70
2021/08/08 00:39:04;;;;;;;2.97;1.80;;;;;;;22.26;56.94;99637.41;5114895;28;20051;-70
2021/08/08 00:41:34;;;;;;;4.97;2.20;;;;;;;22.32;56.28;99632.28;5115118;28;20044;-68
2021/08/08 00:44:02;;;;;;;4.60;2.00;;;;;;;22.21;56.73;99630.84;5115034;28;20078;-77
2021/08/08 00:46:30;;;;;;;4.22;2.30;;;;;;;22.24;56.75;99627.75;5115055;28;20046;-70
2021/08/08 00:48:59;;;;;;;3.95;2.17;;;;;;;22.22;56.40;99633.38;5115153;28;20416;-70
2021/08/08 00:51:28;;;;;;;3.40;2.05;;;;;;;22.07;57.24;99634.31;5115243;28;20036;-70
2021/08/08 00:53:56;;;;;;;8.23;2.47;;;;;;;22.04;57.49;99635.50;5114793;28;20039;-70
2021/08/08 00:56:25;;;;;;;4.68;2.03;;;;;;;22.07;56.97;99629.72;5114804;28;20116;-69
2021/08/08 00:58:54;;;;;;;4.55;2.40;;;;;;;22.14;56.69;99636.13;5114787;28;20066;-69
2021/08/08 01:01:26;;;;;;;5.20;2.03;;;;;;;22.06;57.09;99638.88;5114451;28;20154;-69
2021/08/08 01:03:57;;;;;;;5.37;2.40;;;;;;;22.01;57.36;99646.75;5114950;28;20132;-69
2021/08/08 01:06:31;;;;;;;5.47;2.15;;;;;;;21.88;58.30;99643.75;5114581;28;20051;-70
2021/08/08 01:09:03;;;;;;;4.28;2.30;;;;;;;21.71;58.95;99651.13;5114705;28;20046;-70
2021/08/08 01:11:33;;;;;;;4.97;2.40;;;;;;;21.68;58.21;99651.50;5114919;28;20096;-69
2021/08/08 01:14:04;;;;;;;5.13;2.22;;;;;;;21.63;58.58;99665.63;5114548;28;20043;-70
2021/08/08 01:16:33;;;;;;;4.15;2.20;;;;;;;21.58;59.05;99667.16;5114294;28;20511;-70
2021/08/08 01:19:04;;;;;;;3.90;1.85;;;;;;;21.64;58.93;99661.88;5113551;28;20035;-70
2021/08/08 01:21:34;;;;;;;5.15;2.30;;;;;;;21.61;58.81;99675.78;5114516;28;20553;-70
2021/08/08 01:24:05;;;;;;;3.90;2.10;;;;;;;21.48;59.72;99674.69;5114320;28;20089;-69
2021/08/08 01:26:35;;;;;;;4.13;2.33;;;;;;;21.45;60.06;99684.03;5114541;28;20048;-72
2021/08/08 01:29:04;;;;;;;5.75;2.20;;;;;;;21.43;60.80;99681.50;5114168;28;20507;-73
2021/08/08 01:31:32;;;;;;;5.28;2.20;;;;;;;21.44;59.79;99682.34;5114227;28;20432;-72
2021/08/08 01:34:00;;;;;;;3.70;2.10;;;;;;;21.45;60.54;99686.75;5114207;28;20040;-72
2021/08/08 01:36:28;;;;;;;5.22;2.33;;;;;;;21.48;61.27;99694.50;5113932;28;20043;-72
2021/08/08 01:39:03;;;;;;;11.50;5.20;;;;;;;21.50;61.12;99681.59;5114175;28;20381;-74
2021/08/08 01:41:40;;;;;;;6.95;3.63;;;;;;;21.54;59.91;99682.13;5114175;28;20050;-74
2021/08/08 01:44:09;;;;;;;5.03;2.60;;;;;;;21.58;59.80;99678.88;5113734;28;20444;-74
2021/08/08 01:46:38;;;;;;;3.58;2.17;;;;;;;21.61;59.17;99678.50;5114033;28;20047;-74
2021/08/08 01:49:08;;;;;;;5.15;2.45;;;;;;;21.63;59.45;99668.34;5113649;28;20039;-74
2021/08/08 01:51:37;;;;;;;5.85;2.88;;;;;;;21.69;58.74;99659.47;5113864;28;20085;-74
2021/08/08 01:54:07;;;;;;;5.25;2.53;;;;;;;21.79;58.24;99669.25;5113377;28;20039;-75
2021/08/08 01:56:37;;;;;;;6.95;2.72;;;;;;;21.84;57.86;99666.88;5114085;28;20043;-73
2021/08/08 01:59:07;;;;;;;4.65;2.20;;;;;;;21.96;57.00;99665.44;5113907;28;20032;-73
2021/08/08 02:01:35;;;;;;;4.70;2.08;;;;;;;21.86;57.21;99662.09;5113860;27;20046;-70
2021/08/08 02:04:14;;;;;;;3.88;2.20;;;;;;;21.86;57.43;99659.38;5113613;28;20043;-70
2021/08/08 02:06:42;;;;;;;3.88;2.20;;;;;;;21.96;56.56;99658.13;5113569;28;20107;-71
2021/08/08 02:09:10;;;;;;;5.18;2.20;;;;;;;21.89;57.21;99653.59;5113193;28;20039;-71
2021/08/08 02:11:41;;;;;;;5.53;2.15;;;;;;;21.88;57.17;99646.47;5113434;28;20046;-72
2021/08/08 02:14:11;;;;;;;4.20;2.13;;;;;;;21.99;56.37;99643.34;5113202;28;20046;-73
2021/08/08 02:16:39;;;;;;;3.70;1.83;;;;;;;22.12;55.77;99630.06;5113216;28;20048;-72
2021/08/08 02:19:08;;;;;;;5.07;2.42;;;;;;;21.98;56.39;99638.94;5113188;28;20046;-80
2021/08/08 02:21:36;;;;;;;3.60;1.98;;;;;;;21.87;58.00;99642.91;5113466;28;20412;-72
2021/08/08 02:24:04;;;;;;;4.10;2.08;;;;;;;21.81;57.84;99645.50;5113304;28;20116;-72
2021/08/08 02:26:33;;;;;;;4.78;2.17;;;;;;;21.73;58.38;99648.28;5113506;28;20473;-72
2021/08/08 02:29:02;;;;;;;4.55;2.38;;;;;;;21.74;58.19;99645.38;5113056;28;20438;-72
2021/08/08 02:31:35;;;;;;;4.13;2.15;;;;;;;21.76;57.63;99653.34;5112956;28;20047;-72
2021/08/08 02:34:04;;;;;;;3.35;2.13;;;;;;;21.76;57.38;99656.91;5113135;28;20051;-72
2021/08/08 02:36:33;;;;;;;3.20;2.00;;;;;;;21.64;57.72;99645.59;5112949;28;20062;-72
2021/08/08 02:39:02;;;;;;;3.28;1.98;;;;;;;21.65;57.64;99660.03;5113419;28;20044;-72
2021/08/08 02:41:30;;;;;;;3.70;2.10;;;;;;;21.59;58.03;99669.69;5112777;28;20097;-72
2021/08/08 02:43:58;;;;;;;5.20;2.10;;;;;;;21.51;58.38;99661.59;5113262;28;20596;-72
2021/08/08 02:46:28;;;;;;;4.43;2.30;;;;;;;21.48;58.49;99677.38;5112874;28;20476;-72
2021/08/08 02:48:56;;;;;;;4.57;2.03;;;;;;;21.48;58.46;99672.81;5113414;28;20042;-72
2021/08/08 02:51:24;;;;;;;4.88;2.67;;;;;;;21.47;58.43;99679.25;5113050;28;20396;-73
2021/08/08 02:53:52;;;;;;;4.38;2.47;;;;;;;21.50;58.37;99686.19;5113159;28;20085;-72
2021/08/08 02:56:21;;;;;;;4.70;2.50;;;;;;;21.40;58.96;99684.53;5112781;28;20101;-72
2021/08/08 02:58:49;;;;;;;6.30;2.60;;;;;;;21.34;58.94;99670.84;5113049;28;20416;-74
2021/08/08 03:01:17;;;;;;;5.65;2.28;;;;;;;21.31;59.29;99680.16;5112920;28;20132;-75
2021/08/08 03:03:47;;;;;;;6.03;2.50;;;;;;;21.46;58.93;99677.56;5113015;28;20460;-74
2021/08/08 03:06:18;;;;;;;4.10;2.17;;;;;;;21.43;59.00;99683.34;5112780;28;20043;-75
2021/08/08 03:08:51;;;;;;;8.13;2.47;;;;;;;21.35;58.83;99677.97;5113099;28;20040;-73
2021/08/08 03:11:20;;;;;;;5.15;2.17;;;;;;;21.38;59.10;99683.03;5112873;28;20089;-74
2021/08/08 03:13:48;;;;;;;5.07;2.17;;;;;;;21.28;59.52;99688.66;5113192;28;20101;-74
2021/08/08 03:16:16;;;;;;;4.82;2.15;;;;;;;21.24;59.96;99689.16;5112505;28;20043;-72
2021/08/08 03:18:45;;;;;;;4.50;2.28;;;;;;;21.17;60.63;99693.59;5112806;28;20047;-72
2021/08/08 03:21:14;;;;;;;3.30;2.20;;;;;;;21.11;60.88;99687.81;5112661;28;20039;-74
2021/08/08 03:23:43;;;;;;;4.47;2.28;;;;;;;21.15;60.53;99693.75;5112808;28;20377;-74
2021/08/08 03:26:11;;;;;;;4.57;2.30;;;;;;;21.15;60.40;99700.03;5112767;28;20560;-81
2021/08/08 03:28:39;;;;;;;5.05;2.40;;;;;;;21.17;60.39;99701.72;5113163;28;20047;-74
2021/08/08 03:31:07;;;;;;;4.30;2.47;;;;;;;21.12;61.12;99699.50;5112922;28;20047;-74
2021/08/08 03:33:36;;;;;;;4.45;2.45;;;;;;;21.21;60.62;99705.75;5112449;28;20051;-71
2021/08/08 03:36:05;;;;;;;5.70;2.40;;;;;;;21.19;60.59;99705.09;5112789;28;20048;-72
2021/08/08 03:38:34;;;;;;;4.60;2.13;;;;;;;21.34;59.80;99700.69;5112274;28;20089;-72
2021/08/08 03:41:03;;;;;;;6.22;2.30;;;;;;;21.39;59.60;99707.25;5113983;28;20044;-71
2021/08/08 03:43:31;;;;;;;4.68;2.38;;;;;;;21.26;60.28;99712.41;5116020;28;20046;-74
2021/08/08 03:46:00;;;;;;;4.78;2.35;;;;;;;21.09;61.01;99708.84;5116443;28;20104;-74
2021/08/08 03:48:28;;;;;;;3.60;2.10;;;;;;;20.99;61.69;99716.31;5115894;28;20047;-73
2021/08/08 03:50:56;;;;;;;3.63;2.17;;;;;;;20.92;61.80;99709.03;5116047;28;20040;-74
2021/08/08 03:53:24;;;;;;;5.13;2.53;;;;;;;20.89;61.94;99714.81;5115991;28;20035;-74
2021/08/08 03:55:56;;;;;;;5.82;2.50;;;;;;;20.87;61.53;99720.41;5116132;27;20071;-74
2021/08/08 03:58:29;;;;;;;5.22;2.30;;;;;;;20.89;63.42;99728.38;5115663;28;20492;-75
2021/08/08 04:01:00;;;;;;;6.68;2.47;;;;;;;20.87;63.00;99733.97;5115754;28;20051;-74
2021/08/08 04:03:29;;;;;;;4.38;2.50;;;;;;;20.87;63.71;99733.97;5115674;27;20134;-74
2021/08/08 04:05:58;;;;;;;5.18;2.63;;;;;;;20.86;64.08;99738.53;5116021;28;20113;-74
2021/08/08 04:08:26;;;;;;;6.88;2.33;;;;;;;20.91;63.59;99746.16;5115761;28;20480;-75
2021/08/08 04:10:56;;;;;;;6.13;2.72;;;;;;;20.97;63.82;99740.06;5115924;28;20060;-74
2021/08/08 04:13:24;;;;;;;6.85;3.58;;;;;;;21.05;63.99;99741.91;5115518;28;20446;-74
2021/08/08 04:15:52;;;;;;;5.70;2.70;;;;;;;21.07;64.16;99740.72;5115602;28;20380;-73
2021/08/08 04:18:21;;;;;;;4.10;2.63;;;;;;;21.32;63.91;99759.66;5115753;28;20052;-73
2021/08/08 04:20:50;;;;;;;6.63;2.88;;;;;;;21.49;63.24;99766.75;5115805;28;20076;-73
2021/08/08 04:23:19;;;;;;;8.10;2.72;;;;;;;21.94;61.33;99771.50;5115321;28;20071;-74
2021/08/08 04:25:47;;;;;;;4.60;2.72;;;;;;;22.49;58.96;99769.69;5115504;28;20434;-74
2021/08/08 04:28:16;;;;;;;5.15;2.58;;;;;;;22.52;58.19;99778.31;5115472;28;20042;-78
2021/08/08 04:30:44;;;;;;;4.32;2.50;;;;;;;22.66;57.80;99787.56;5115433;28;20031;-74
2021/08/08 04:33:12;;;;;;;4.68;2.30;;;;;;;22.78;57.33;99780.69;5115347;28;20123;-74
2021/08/08 04:35:41;;;;;;;4.68;2.30;;;;;;;22.49;57.75;99786.00;5115457;28;20480;-74
2021/08/08 04:38:09;;;;;;;5.18;2.47;;;;;;;22.47;58.15;99790.75;5115383;28;20563;-74
2021/08/08 04:40:37;;;;;;;3.55;2.15;;;;;;;22.71;57.53;99787.88;5114902;28;20047;-73
2021/08/08 04:43:08;;;;;;;5.57;2.30;;;;;;;22.74;57.47;99790.22;5115188;28;20043;-73
2021/08/08 04:45:37;;;;;;;4.70;2.40;;;;;;;22.98;57.64;99791.09;5114784;28;20105;-74
2021/08/08 04:48:06;;;;;;;5.85;2.35;;;;;;;23.24;57.31;99796.94;5115197;28;20044;-72
2021/08/08 04:50:37;;;;;;;4.90;2.20;;;;;;;23.81;55.82;99793.63;5113877;28;20055;-72
2021/08/08 04:53:05;;;;;;;5.97;2.03;;;;;;;23.62;57.11;99794.19;5114880;28;20120;-72
2021/08/08 04:55:33;;;;;;;6.05;2.00;;;;;;;23.59;57.38;99800.03;5114425;28;20092;-72
2021/08/08 04:58:01;;;;;;;3.35;1.92;;;;;;;23.77;57.14;99800.50;5115097;28;20404;-71
2021/08/08 05:00:29;;;;;;;3.67;1.70;;;;;;;23.64;57.65;99798.44;5113496;28;20047;-71
2021/08/08 05:03:00;;;;;;;4.30;1.70;;;;;;;23.78;57.46;99804.06;5114736;28;20153;-70
2021/08/08 05:05:29;;;;;;;5.80;1.85;;;;;;;23.33;58.65;99797.72;5113417;28;20048;-71
2021/08/08 05:07:58;;;;;;;3.03;1.60;;;;;;;23.17;59.47;99793.28;5114676;28;20373;-71
2021/08/08 05:10:26;;;;;;;4.10;1.60;;;;;;;23.42;59.14;99799.31;5114311;28;20063;-71
2021/08/08 05:12:56;;;;;;;4.45;1.70;;;;;;;23.49;58.68;99804.88;5113359;28;20075;-72
2021/08/08 05:15:24;;;;;;;3.30;1.90;;;;;;;23.54;59.06;99807.88;5114170;28;20043;-72
2021/08/08 05:17:54;;;;;;;5.03;1.60;;;;;;;23.36;59.40;99800.09;5114303;28;20443;-71
2021/08/08 05:20:23;;;;;;;6.07;1.92;;;;;;;23.02;60.55;99795.97;5114067;28;20039;-67
2021/08/08 05:22:52;;;;;;;5.00;1.65;;;;;;;22.96;61.04;99810.28;5114359;28;20040;-67
2021/08/08 05:25:20;;;;;;;3.88;1.70;;;;;;;23.10;60.70;99816.81;5114201;28;20096;-73
2021/08/08 05:27:48;;;;;;;4.65;1.63;;;;;;;23.26;60.05;99810.34;5114325;28;20122;-68
2021/08/08 05:30:17;;;;;;;3.17;1.52;;;;;;;23.79;58.02;99819.38;5114240;28;20176;-68
2021/08/08 05:32:45;;;;;;;4.30;1.55;;;;;;;24.01;57.28;99814.84;5114242;28;20408;-69
2021/08/08 05:35:14;;;;;;;3.30;1.35;;;;;;;24.48;55.81;99811.69;5114433;28;20136;-68
2021/08/08 05:37:43;;;;;;;2.42;1.42;;;;;;;24.71;55.27;99808.81;5115720;28;20093;-69
2021/08/08 05:40:13;;;;;;;2.97;1.33;;;;;;;24.73;54.79;99825.81;5114060;28;20039;-67
2021/08/08 05:42:47;;;;;;;7.22;1.30;;;;;;;25.20;53.26;99817.06;5113715;28;20044;-66
2021/08/08 05:45:15;;;;;;;4.10;1.30;;;;;;;25.44;52.76;99821.22;5114227;28;20043;-66
2021/08/08 05:47:43;;;;;;;2.03;1.30;;;;;;;25.11;53.69;99830.00;5112104;28;20097;-66
2021/08/08 05:50:11;;;;;;;2.33;1.30;;;;;;;25.38;52.85;99828.34;5113799;28;20485;-67
2021/08/08 05:52:39;;;;;;;4.50;1.50;;;;;;;25.57;52.33;99824.03;5113714;28;20047;-68
2021/08/08 05:55:10;;;;;;;2.65;0.98;;;;;;;25.45;52.40;99825.63;5114414;28;20485;-65
2021/08/08 05:57:38;;;;;;;4.40;1.30;;;;;;;25.25;53.29;99824.63;5111048;28;20384;-66
2021/08/08 06:00:07;;;;;;;2.78;1.20;;;;;;;25.42;52.75;99830.66;5112897;28;20092;-64
2021/08/08 06:02:36;;;;;;;3.22;1.30;;;;;;;25.71;51.54;99826.91;5110369;28;20119;-64
2021/08/08 06:05:06;;;;;;;3.55;1.38;;;;;;;25.67;51.68;99821.81;5112631;28;20032;-63
2021/08/08 06:07:34;;;;;;;3.70;1.20;;;;;;;25.73;50.75;99824.81;5112867;28;20031;-68
2021/08/08 06:10:02;;;;;;;2.10;1.10;;;;;;;25.65;51.74;99837.53;5113440;28;20056;-66
2021/08/08 06:12:33;;;;;;;4.93;1.33;;;;;;;25.54;51.28;99840.81;5112377;28;20476;-67
2021/08/08 06:15:02;;;;;;;2.35;1.13;;;;;;;25.61;51.35;99824.50;5112870;28;20071;-69
2021/08/08 06:17:32;;;;;;;2.25;0.88;;;;;;;25.76;51.71;99833.44;5112648;28;20047;-65
2021/08/08 06:20:01;;;;;;;2.03;1.10;;;;;;;25.86;51.44;99833.91;5113406;28;20136;-65
2021/08/08 06:22:29;;;;;;;1.95;0.85;;;;;;;26.01;50.45;99841.16;5112866;28;20051;-67
2021/08/08 06:24:58;;;;;;;2.47;1.50;;;;;;;25.69;51.42;99838.84;5113113;28;20047;-67
2021/08/08 06:27:26;;;;;;;3.05;1.30;;;;;;;25.97;51.26;99846.19;5113036;28;20480;-67
2021/08/08 06:29:56;;;;;;;2.22;1.00;;;;;;;26.14;50.50;99843.94;5113175;28;20533;-67
2021/08/08 06:32:27;;;;;;;1.95;1.05;;;;;;;25.96;51.37;99848.06;5111374;28;20051;-69
2021/08/08 06:34:55;;;;;;;2.85;1.17;;;;;;;26.28;50.30;99847.59;5109649;28;20044;-68
2021/08/08 06:37:23;;;;;;;2.30;1.00;;;;;;;26.49;49.10;99850.22;5112967;28;20092;-70
2021/08/08 06:39:51;;;;;;;2.95;1.10;;;;;;;26.40;49.37;99862.38;5112886;28;20048;-72
2021/08/08 06:42:20;;;;;;;1.48;0.93;;;;;;;26.25;49.63;99859.78;5113383;28;20043;-69
2021/08/08 06:44:48;;;;;;;2.60;1.52;;;;;;;26.62;48.95;99857.63;5112517;28;20395;-69
2021/08/08 06:47:17;;;;;;;2.05;1.10;;;;;;;26.84;49.43;99863.81;5112488;28;20089;-70
2021/08/08 06:49:45;;;;;;;1.98;1.10;;;;;;;26.59;49.11;99856.16;5112695;28;20054;-69
2021/08/08 06:52:14;;;;;;;2.08;0.90;;;;;;;26.67;48.78;99858.69;5113021;28;20086;-70
2021/08/08 06:54:42;;;;;;;2.40;0.90;;;;;;;26.54;48.98;99866.88;5113117;28;20472;-70
2021/08/08 06:57:10;;;;;;;2.25;1.10;;;;;;;26.68;48.23;99868.59;5113278;28;20400;-70
2021/08/08 06:59:42;;;;;;;1.63;0.90;;;;;;;26.48;49.37;99867.69;5113017;28;20475;-70
2021/08/08 07:02:10;;;;;;;1.63;0.90;;;;;;;26.80;48.85;99869.66;5113148;28;20050;-70
2021/08/08 07:04:40;;;;;;;1.90;1.00;;;;;;;26.44;49.09;99869.13;5112897;28;20050;-70
2021/08/08 07:07:08;;;;;;;3.05;0.90;;;;;;;26.01;50.73;99863.84;5113285;28;20048;-70
2021/08/08 07:09:38;;;;;;;1.85;0.90;;;;;;;25.83;51.35;99878.03;5112908;28;20481;-70
2021/08/08 07:12:07;;;;;;;1.90;1.10;;;;;;;25.90;50.14;99868.00;5113006;28;20047;-70
2021/08/08 07:14:36;;;;;;;3.45;1.02;;;;;;;25.85;51.26;99875.09;5112919;28;20047;-70
2021/08/08 07:17:05;;;;;;;1.90;1.00;;;;;;;25.37;52.51;99874.91;5115636;28;20051;-70
2021/08/08 07:19:33;;;;;;;1.52;1.00;;;;;;;25.47;53.66;99869.94;5116879;28;20108;-70
2021/08/08 07:22:04;;;;;;;2.33;1.00;;;;;;;25.58;52.91;99877.63;5117020;28;20500;-69
2021/08/08 07:24:32;;;;;;;2.22;0.90;;;;;;;25.22;53.79;99874.16;5116778;28;20050;-69
2021/08/08 07:27:01;;;;;;;3.08;1.10;;;;;;;25.19;54.91;99875.41;5116707;28;20088;-69
2021/08/08 07:29:29;;;;;;;0.75;0.63;;;;;;;24.97;55.00;99882.69;5116508;28;20097;-70
2021/08/08 07:31:57;;;;;;;2.03;1.00;;;;;;;25.32;54.11;99883.72;5116770;28;20489;-70
2021/08/08 07:34:25;;;;;;;1.45;0.90;;;;;;;25.20;53.38;99887.16;5116915;28;20071;-69
2021/08/08 07:36:54;;;;;;;1.85;0.95;;;;;;;25.32;54.14;99897.34;5116791;28;20047;-68
2021/08/08 07:39:24;;;;;;;2.17;1.20;;;;;;;25.25;54.06;99896.44;5116631;28;20481;-69
2021/08/08 07:41:52;;;;;;;2.40;1.00;;;;;;;25.27;54.39;99899.81;5116294;28;20040;-70
2021/08/08 07:44:21;;;;;;;1.45;0.80;;;;;;;25.15;53.55;99906.84;5116429;28;20492;-70
2021/08/08 07:46:49;;;;;;;1.45;0.88;;;;;;;25.10;55.05;99899.25;5116130;28;20051;-69
2021/08/08 07:49:17;;;;;;;2.17;1.05;;;;;;;25.06;54.18;99911.56;5116462;28;20476;-69
2021/08/08 07:51:45;;;;;;;2.92;1.10;;;;;;;25.08;55.53;99904.03;5116286;28;20043;-69
2021/08/08 07:54:14;;;;;;;1.08;0.88;;;;;;;25.27;54.85;99901.69;5116368;28;20055;-69
2021/08/08 07:56:44;;;;;;;2.00;0.90;;;;;;;25.16;54.21;99907.69;5115865;28;20481;-69
2021/08/08 07:59:12;;;;;;;4.68;0.90;;;;;;;25.03;55.41;99901.06;5116045;28;20062;-70
2021/08/08 08:01:41;;;;;;;2.70;1.02;;;;;;;25.24;55.83;99900.22;5115975;28;20066;-70
2021/08/08 08:04:11;;;;;;;1.73;0.98;;;;;;;25.11;54.76;99900.94;5116589;28;20109;-70
2021/08/08 08:06:39;;;;;;;1.48;0.90;;;;;;;25.21;55.38;99905.22;5115892;28;20048;-70
2021/08/08 08:09:07;;;;;;;2.78;1.10;;;;;;;25.40;54.84;99904.56;5115808;28;20127;-71
2021/08/08 08:11:35;;;;;;;2.75;1.20;;;;;;;25.45;54.67;99912.16;5114458;28;20052;-70
2021/08/08 08:14:05;;;;;;;2.42;0.90;;;;;;;25.47;54.10;99919.09;5116018;28;20050;-69
2021/08/08 08:16:33;;;;;;;2.92;1.17;;;;;;;25.45;55.05;99914.88;5115341;28;20396;-70
2021/08/08 08:19:02;;;;;;;2.83;1.10;;;;;;;25.44;54.08;99915.94;5114925;28;20083;-70
2021/08/08 08:21:30;;;;;;;2.03;1.00;;;;;;;25.54;54.97;99921.91;5115856;28;20044;-70
2021/08/08 08:23:58;;;;;;;2.33;0.90;;;;;;;25.65;54.83;99914.00;5115794;28;20097;-69
2021/08/08 08:26:26;;;;;;;2.42;1.00;;;;;;;25.51;54.58;99919.56;5115484;28;20065;-70
2021/08/08 08:28:55;;;;;;;1.55;0.90;;;;;;;25.47;54.34;99916.38;5115535;28;20043;-69
2021/08/08 08:31:24;;;;;;;1.67;1.00;;;;;;;25.64;55.62;99911.47;5115549;28;20078;-69
2021/08/08 08:33:53;;;;;;;2.35;0.85;;;;;;;25.68;54.53;99919.09;5115311;28;20118;-69
2021/08/08 08:36:21;;;;;;;1.40;0.90;;;;;;;25.74;54.18;99917.47;5115419;28;20112;-69
2021/08/08 08:38:49;;;;;;;1.52;0.90;;;;;;;25.78;53.38;99923.41;5115312;28;20039;-70
2021/08/08 08:41:18;;;;;;;2.53;1.00;;;;;;;25.72;54.12;99918.72;5115410;28;20071;-69
2021/08/08 08:43:46;;;;;;;1.55;0.98;;;;;;;25.60;54.20;99913.78;5115064;28;20040;-70
2021/08/08 08:46:16;;;;;;;1.60;1.00;;;;;;;25.78;55.15;99912.47;5115151;28;20484;-69
2021/08/08 08:48:46;;;;;;;1.90;0.82;;;;;;;25.88;53.82;99912.97;5115224;28;20048;-70
2021/08/08 08:51:19;;;;;;;2.92;1.20;;;;;;;25.96;53.54;99918.25;5115516;28;20051;-69
2021/08/08 08:53:48;;;;;;;1.85;0.90;;;;;;;26.00;53.16;99916.81;5114984;28;20050;-69
2021/08/08 08:56:18;;;;;;;2.40;1.00;;;;;;;25.98;53.80;99921.66;5115259;28;20040;-69
2021/08/08 08:58:47;;;;;;;3.30;1.20;;;;;;;26.11;52.94;99916.25;5114727;28;20040;-70
2021/08/08 09:01:15;;;;;;;1.42;0.90;;;;;;;26.08;52.42;99922.13;5114931;28;20108;-70
2021/08/08 09:03:46;;;;;;;2.30;1.10;;;;;;;25.88;53.60;99932.09;5114748;28;20063;-68
2021/08/08 09:06:14;;;;;;;1.77;0.95;;;;;;;26.13;53.23;99919.63;5113999;28;20047;-69
2021/08/08 09:08:43;;;;;;;1.77;1.00;;;;;;;26.28;52.98;99929.59;5114638;28;20096;-68
2021/08/08 09:11:12;;;;;;;2.47;1.13;;;;;;;26.35;53.49;99927.75;5114888;28;20454;-69
2021/08/08 09:13:52;;;;;;;1.50;1.05;;;;;;;26.42;52.00;99928.66;5114584;28;20497;-68
2021/08/08 09:16:21;;;;;;;2.00;1.20;;;;;;;26.37;52.04;99936.59;5114689;28;20043;-70
2021/08/08 09:18:52;;;;;;;3.05;1.00;;;;;;;26.32;51.38;99925.41;5114609;28;20043;-71
2021/08/08 09:21:22;;;;;;;1.92;1.00;;;;;;;26.53;52.50;99939.84;5114528;28;20463;-70
2021/08/08 09:23:55;;;;;;;2.55;1.25;;;;;;;26.54;51.01;99940.72;5114388;28;20097;-70
2021/08/08 09:26:31;;;;;;;4.03;1.48;;;;;;;26.41;50.51;99935.16;5114513;28;20489;-70
2021/08/08 09:29:08;;;;;;;2.03;0.88;;;;;;;26.54;51.63;99946.19;5113144;28;20075;-70
2021/08/08 09:31:41;;;;;;;1.45;1.05;;;;;;;26.73;51.46;99945.44;5114544;28;20039;-72
2021/08/08 09:34:22;;;;;;;1.80;1.00;;;;;;;26.91;50.36;99931.16;5114532;28;20036;-70
2021/08/08 09:36:52;;;;;;;2.55;1.10;;;;;;;26.94;50.19;99936.25;5113957;28;20039;-70
2021/08/08 09:39:28;;;;;;;2.42;1.48;;;;;;;27.04;51.21;99941.34;5113557;28;20046;-69
2021/08/08 09:42:13;;;;;;;4.78;1.30;;;;;;;26.93;49.49;99933.72;5114127;28;20092;-70
2021/08/08 09:44:54;;;;;;;3.85;1.30;;;;;;;26.89;47.81;99944.22;5114199;28;20500;-70
2021/08/08 09:47:23;;;;;;;2.83;1.30;;;;;;;26.81;48.40;99941.66;5113115;28;20051;-70
2021/08/08 09:50:02;;;;;;;2.55;1.30;;;;;;;26.89;49.14;99944.22;5113767;28;20148;-70
2021/08/08 09:52:30;;;;;;;3.30;1.33;;;;;;;26.94;49.67;99954.56;5114103;28;20050;-70
2021/08/08 09:54:59;;;;;;;3.67;1.58;;;;;;;27.13;47.77;99948.31;5113704;28;20126;-70
2021/08/08 09:57:38;;;;;;;2.55;1.55;;;;;;;27.10;47.40;99946.81;5113662;28;20050;-71
2021/08/08 10:00:08;;;;;;;3.10;1.30;;;;;;;27.26;46.59;99951.06;5114227;28;20035;-70
2021/08/08 10:02:38;;;;;;;1.95;1.20;;;;;;;27.35;46.91;99946.25;5114003;28;20042;-69
2021/08/08 10:05:09;;;;;;;2.95;1.38;;;;;;;27.46;47.17;99947.53;5114241;28;20122;-69
2021/08/08 10:07:37;;;;;;;3.20;1.55;;;;;;;27.66;47.02;99945.66;5113848;28;20047;-68
2021/08/08 10:10:06;;;;;;;2.45;1.38;;;;;;;27.56;45.57;99943.31;5113729;28;20472;-69
2021/08/08 10:12:56;;;;;;;2.78;1.40;;;;;;;27.77;46.42;99941.44;5113858;28;20035;-69
2021/08/08 10:15:26;;;;;;;2.75;1.52;;;;;;;27.86;44.42;99945.66;5114006;28;20047;-68
2021/08/08 10:17:56;;;;;;;4.00;1.40;;;;;;;27.69;44.18;99945.22;5113653;28;20062;-69
2021/08/08 10:20:28;;;;;;;2.80;1.58;;;;;;;27.55;44.20;99946.28;5113484;28;20067;-69
2021/08/08 10:22:59;;;;;;;2.33;1.30;;;;;;;27.60;45.03;99940.97;5113552;28;20044;-69
2021/08/08 10:25:28;;;;;;;2.40;1.40;;;;;;;27.71;44.89;99939.56;5113642;28;20044;-68
2021/08/08 10:27:57;;;;;;;3.58;1.50;;;;;;;27.64;45.28;99945.00;5111953;28;20554;-68
2021/08/08 10:30:26;;;;;;;2.35;1.20;;;;;;;27.79;45.83;99944.81;5113686;28;20071;-68
2021/08/08 10:32:55;;;;;;;3.05;1.30;;;;;;;28.02;45.37;99927.94;5113224;28;20043;-70
2021/08/08 10:35:25;;;;;;;2.78;1.13;;;;;;;27.80;45.49;99939.16;5113421;28;20044;-69
2021/08/08 10:38:01;;;;;;;2.15;1.30;;;;;;;27.79;45.36;99948.41;5113232;28;20047;-69
2021/08/08 10:40:31;;;;;;;2.50;1.38;;;;;;;27.67;45.50;99939.13;5113478;28;20484;-69
2021/08/08 10:43:00;;;;;;;3.30;1.20;;;;;;;27.92;45.00;99939.34;5113235;28;20368;-69
2021/08/08 10:45:30;;;;;;;1.88;1.20;;;;;;;28.08;44.25;99938.88;5113143;28;20404;-69
2021/08/08 10:48:00;;;;;;;3.60;1.45;;;;;;;28.00;43.56;99941.03;5113235;28;20093;-69
2021/08/08 10:50:43;;;;;;;3.58;1.40;;;;;;;28.14;43.45;99937.19;5115322;28;20063;-69
2021/08/08 10:53:22;;;;;;;3.13;1.40;;;;;;;28.14;43.32;99943.50;5117530;28;20508;-69
2021/08/08 10:56:02;;;;;;;2.13;1.10;;;;;;;28.11;43.50;99940.38;5117298;27;20404;-69
2021/08/08 10:58:32;;;;;;;1.83;1.20;;;;;;;27.98;43.75;99932.16;5117634;28;20043;-69
2021/08/08 11:01:01;;;;;;;4.97;1.67;;;;;;;27.90;43.91;99925.00;5117324;28;20039;-69
2021/08/08 11:03:30;;;;;;;2.53;1.45;;;;;;;28.03;43.50;99935.94;5117366;28;20484;-69
2021/08/08 11:05:59;;;;;;;2.30;1.48;;;;;;;28.11;43.75;99926.66;5117042;28;20089;-69
2021/08/08 11:08:28;;;;;;;3.17;1.30;;;;;;;27.95;42.96;99917.81;5117036;28;20400;-69
2021/08/08 11:10:56;;;;;;;1.52;1.10;;;;;;;27.97;43.61;99920.34;5117040;28;20040;-69
2021/08/08 11:13:26;;;;;;;2.90;1.30;;;;;;;27.87;43.42;99920.78;5116836;28;20122;-69
2021/08/08 11:15:54;;;;;;;3.05;1.40;;;;;;;28.03;44.20;99921.41;5115286;28;20044;-69
2021/08/08 11:18:30;;;;;;;2.15;1.40;;;;;;;28.13;42.81;99919.91;5116787;28;20055;-69
2021/08/08 11:21:00;;;;;;;2.83;1.40;;;;;;;28.08;43.74;99913.38;5116785;28;20099;-69
2021/08/08 11:23:30;;;;;;;2.80;1.50;;;;;;;28.22;44.43;99915.03;5117032;28;20036;-69
2021/08/08 11:25:59;;;;;;;2.55;1.38;;;;;;;28.41;42.45;99927.88;5116913;28;20110;-70
2021/08/08 11:28:27;;;;;;;2.75;1.50;;;;;;;28.30;42.97;99925.81;5116668;28;20043;-69
2021/08/08 11:30:56;;;;;;;4.50;1.50;;;;;;;28.14;42.26;99928.97;5116472;28;20048;-69
2021/08/08 11:33:26;;;;;;;3.55;1.58;;;;;;;27.95;42.64;99923.31;5116609;28;20118;-69
2021/08/08 11:36:01;;;;;;;2.50;1.30;;;;;;;28.02;43.47;99927.94;5116492;28;20036;-69
2021/08/08 11:38:32;;;;;;;3.60;1.30;;;;;;;28.15;42.98;99933.38;5116503;28;20050;-69
2021/08/08 11:41:01;;;;;;;3.17;1.60;;;;;;;28.05;43.10;99933.00;5116410;27;20048;-70
2021/08/08 11:43:33;;;;;;;3.88;1.60;;;;;;;28.12;43.66;99920.13;5116644;28;20071;-69
2021/08/08 11:46:02;;;;;;;2.92;1.40;;;;;;;28.31;42.81;99932.97;5116330;28;20044;-70